sensor_id;sensor_type;location;lat;lon;timestamp;P1;durP1;ratioP1;P2;durP2;ratioP2
40745;SDS011;26454;51.164;4.488;2023-08-08T00:02:20;11.45;;;3.67;;
40745;SDS011;26454;51.164;4.488;2023-08-08T00:04:46;12.18;;;3.70;;
40745;SDS011;26454;51.164;4.488;2023-08-08T00:07:12;9.18;;;3.80;;
40745;SDS011;26454;51.164;4.488;2023-08-08T00:09:38;7.00;;;3.67;;
40745;SDS011;26454;51.164;4.488;2023-08-08T00:12:04;8.10;;;3.10;;
40745;SDS011;26454;51.164;4.488;2023-08-08T00:14:30;6.65;;;3.05;;
40745;SDS011;26454;51.164;4.488;2023-08-08T00:16:56;11.13;;;3.47;;
40745;SDS011;26454;51.164;4.488;2023-08-08T00:19:22;7.05;;;4.35;;
40745;SDS011;26454;51.164;4.488;2023-08-08T00:21:48;9.23;;;3.25;;
40745;SDS011;26454;51.164;4.488;2023-08-08T00:24:15;10.20;;;2.90;;
40745;SDS011;26454;51.164;4.488;2023-08-08T00:26:41;6.72;;;3.25;;
40745;SDS011;26454;51.164;4.488;2023-08-08T00:29:07;5.70;;;3.38;;
40745;SDS011;26454;51.164;4.488;2023-08-08T00:31:33;11.15;;;3.85;;
40745;SDS011;26454;51.164;4.488;2023-08-08T00:33:59;6.90;;;3.47;;
40745;SDS011;26454;51.164;4.488;2023-08-08T00:36:25;8.15;;;4.13;;
40745;SDS011;26454;51.164;4.488;2023-08-08T00:38:51;7.30;;;3.60;;
40745;SDS011;26454;51.164;4.488;2023-08-08T00:41:17;8.18;;;3.95;;
40745;SDS011;26454;51.164;4.488;2023-08-08T00:43:42;6.80;;;3.70;;
40745;SDS011;26454;51.164;4.488;2023-08-08T00:46:09;8.93;;;4.45;;
40745;SDS011;26454;51.164;4.488;2023-08-08T00:48:35;9.27;;;3.70;;
40745;SDS011;26454;51.164;4.488;2023-08-08T00:51:01;7.47;;;3.80;;
40745;SDS011;26454;51.164;4.488;2023-08-08T00:53:28;8.98;;;3.60;;
40745;SDS011;26454;51.164;4.488;2023-08-08T00:55:56;13.55;;;4.07;;
40745;SDS011;26454;51.164;4.488;2023-08-08T00:58:24;12.35;;;4.22;;
40745;SDS011;26454;51.164;4.488;2023-08-08T01:00:50;13.18;;;4.82;;
40745;SDS011;26454;51.164;4.488;2023-08-08T01:03:19;8.50;;;4.00;;
40745;SDS011;26454;51.164;4.488;2023-08-08T01:05:51;9.07;;;4.22;;
40745;SDS011;26454;51.164;4.488;2023-08-08T01:08:21;10.52;;;4.28;;
40745;SDS011;26454;51.164;4.488;2023-08-08T01:10:48;12.63;;;4.10;;
40745;SDS011;26454;51.164;4.488;2023-08-08T01:13:15;8.25;;;4.00;;
40745;SDS011;26454;51.164;4.488;2023-08-08T01:15:43;8.30;;;4.22;;
40745;SDS011;26454;51.164;4.488;2023-08-08T01:18:10;16.17;;;4.97;;
40745;SDS011;26454;51.164;4.488;2023-08-08T01:20:37;8.07;;;3.53;;
40745;SDS011;26454;51.164;4.488;2023-08-08T01:23:14;12.30;;;4.30;;
40745;SDS011;26454;51.164;4.488;2023-08-08T01:25:42;12.02;;;4.65;;
40745;SDS011;26454;51.164;4.488;2023-08-08T01:28:09;12.65;;;4.15;;
40745;SDS011;26454;51.164;4.488;2023-08-08T01:30:35;22.95;;;5.43;;
40745;SDS011;26454;51.164;4.488;2023-08-08T01:33:02;13.23;;;4.57;;
40745;SDS011;26454;51.164;4.488;2023-08-08T01:35:29;9.98;;;4.90;;
40745;SDS011;26454;51.164;4.488;2023-08-08T01:37:59;15.57;;;4.80;;
40745;SDS011;26454;51.164;4.488;2023-08-08T01:40:26;15.45;;;5.32;;
40745;SDS011;26454;51.164;4.488;2023-08-08T01:42:53;15.43;;;5.05;;
40745;SDS011;26454;51.164;4.488;2023-08-08T01:45:20;12.68;;;4.70;;
40745;SDS011;26454;51.164;4.488;2023-08-08T01:47:50;17.90;;;5.82;;
40745;SDS011;26454;51.164;4.488;2023-08-08T01:50:16;10.00;;;5.20;;
40745;SDS011;26454;51.164;4.488;2023-08-08T01:52:42;15.90;;;5.50;;
40745;SDS011;26454;51.164;4.488;2023-08-08T01:55:08;14.05;;;5.47;;
40745;SDS011;26454;51.164;4.488;2023-08-08T01:57:34;10.02;;;5.15;;
40745;SDS011;26454;51.164;4.488;2023-08-08T02:00:00;14.30;;;5.30;;
40745;SDS011;26454;51.164;4.488;2023-08-08T02:02:29;19.33;;;5.10;;
40745;SDS011;26454;51.164;4.488;2023-08-08T02:04:55;11.02;;;4.40;;
40745;SDS011;26454;51.164;4.488;2023-08-08T02:07:21;22.70;;;5.18;;
40745;SDS011;26454;51.164;4.488;2023-08-08T02:09:47;11.63;;;5.45;;
40745;SDS011;26454;51.164;4.488;2023-08-08T02:12:15;14.65;;;5.50;;
40745;SDS011;26454;51.164;4.488;2023-08-08T02:14:42;14.75;;;5.80;;
40745;SDS011;26454;51.164;4.488;2023-08-08T02:17:08;11.15;;;5.20;;
40745;SDS011;26454;51.164;4.488;2023-08-08T02:19:34;14.35;;;5.55;;
40745;SDS011;26454;51.164;4.488;2023-08-08T02:22:00;17.65;;;6.45;;
40745;SDS011;26454;51.164;4.488;2023-08-08T02:24:26;14.57;;;6.28;;
40745;SDS011;26454;51.164;4.488;2023-08-08T02:26:52;14.70;;;5.80;;
40745;SDS011;26454;51.164;4.488;2023-08-08T02:29:18;12.77;;;6.55;;
40745;SDS011;26454;51.164;4.488;2023-08-08T02:31:44;15.38;;;6.13;;
40745;SDS011;26454;51.164;4.488;2023-08-08T02:34:10;21.75;;;6.05;;
40745;SDS011;26454;51.164;4.488;2023-08-08T02:36:36;12.90;;;5.60;;
40745;SDS011;26454;51.164;4.488;2023-08-08T02:39:02;17.70;;;6.38;;
40745;SDS011;26454;51.164;4.488;2023-08-08T02:41:28;25.00;;;6.72;;
40745;SDS011;26454;51.164;4.488;2023-08-08T02:43:54;18.83;;;6.70;;
40745;SDS011;26454;51.164;4.488;2023-08-08T02:46:20;17.92;;;6.93;;
40745;SDS011;26454;51.164;4.488;2023-08-08T02:48:46;17.25;;;5.80;;
40745;SDS011;26454;51.164;4.488;2023-08-08T02:51:12;14.70;;;5.75;;
40745;SDS011;26454;51.164;4.488;2023-08-08T02:53:38;18.95;;;6.00;;
40745;SDS011;26454;51.164;4.488;2023-08-08T02:56:04;21.42;;;6.13;;
40745;SDS011;26454;51.164;4.488;2023-08-08T02:58:30;19.98;;;6.35;;
40745;SDS011;26454;51.164;4.488;2023-08-08T03:00:56;20.85;;;6.30;;
40745;SDS011;26454;51.164;4.488;2023-08-08T03:03:22;13.60;;;6.53;;
40745;SDS011;26454;51.164;4.488;2023-08-08T03:05:49;20.15;;;7.35;;
40745;SDS011;26454;51.164;4.488;2023-08-08T03:08:15;15.80;;;6.43;;
40745;SDS011;26454;51.164;4.488;2023-08-08T03:10:41;21.85;;;7.68;;
40745;SDS011;26454;51.164;4.488;2023-08-08T03:13:07;14.43;;;6.40;;
40745;SDS011;26454;51.164;4.488;2023-08-08T03:15:33;21.65;;;6.93;;
40745;SDS011;26454;51.164;4.488;2023-08-08T03:18:00;14.70;;;6.60;;
40745;SDS011;26454;51.164;4.488;2023-08-08T03:20:26;21.33;;;7.53;;
40745;SDS011;26454;51.164;4.488;2023-08-08T03:22:52;18.20;;;6.85;;
40745;SDS011;26454;51.164;4.488;2023-08-08T03:25:18;14.90;;;5.57;;
40745;SDS011;26454;51.164;4.488;2023-08-08T03:27:44;22.13;;;6.55;;
40745;SDS011;26454;51.164;4.488;2023-08-08T03:30:11;17.10;;;6.43;;
40745;SDS011;26454;51.164;4.488;2023-08-08T03:32:37;22.70;;;8.43;;
40745;SDS011;26454;51.164;4.488;2023-08-08T03:35:03;19.75;;;6.85;;
40745;SDS011;26454;51.164;4.488;2023-08-08T03:37:29;17.45;;;7.53;;
40745;SDS011;26454;51.164;4.488;2023-08-08T03:39:55;19.55;;;6.97;;
40745;SDS011;26454;51.164;4.488;2023-08-08T03:42:21;21.52;;;7.38;;
40745;SDS011;26454;51.164;4.488;2023-08-08T03:44:47;17.73;;;6.68;;
40745;SDS011;26454;51.164;4.488;2023-08-08T03:47:13;15.70;;;6.65;;
40745;SDS011;26454;51.164;4.488;2023-08-08T03:49:39;22.00;;;6.78;;
40745;SDS011;26454;51.164;4.488;2023-08-08T03:52:05;17.65;;;6.85;;
40745;SDS011;26454;51.164;4.488;2023-08-08T03:54:32;25.33;;;7.82;;
40745;SDS011;26454;51.164;4.488;2023-08-08T03:56:58;21.40;;;7.43;;
40745;SDS011;26454;51.164;4.488;2023-08-08T03:59:24;14.90;;;6.70;;
40745;SDS011;26454;51.164;4.488;2023-08-08T04:01:50;18.60;;;6.88;;
40745;SDS011;26454;51.164;4.488;2023-08-08T04:04:16;15.43;;;6.68;;
40745;SDS011;26454;51.164;4.488;2023-08-08T04:06:42;23.88;;;7.90;;
40745;SDS011;26454;51.164;4.488;2023-08-08T04:09:08;22.50;;;7.80;;
40745;SDS011;26454;51.164;4.488;2023-08-08T04:11:34;22.63;;;8.02;;
40745;SDS011;26454;51.164;4.488;2023-08-08T04:14:01;22.48;;;7.60;;
40745;SDS011;26454;51.164;4.488;2023-08-08T04:16:27;18.20;;;8.85;;
40745;SDS011;26454;51.164;4.488;2023-08-08T04:18:53;22.13;;;7.55;;
40745;SDS011;26454;51.164;4.488;2023-08-08T04:21:19;19.92;;;7.25;;
40745;SDS011;26454;51.164;4.488;2023-08-08T04:23:45;21.77;;;6.78;;
40745;SDS011;26454;51.164;4.488;2023-08-08T04:26:11;23.33;;;7.25;;
40745;SDS011;26454;51.164;4.488;2023-08-08T04:28:37;19.75;;;7.75;;
40745;SDS011;26454;51.164;4.488;2023-08-08T04:31:03;17.00;;;8.32;;
40745;SDS011;26454;51.164;4.488;2023-08-08T04:33:29;18.38;;;8.32;;
40745;SDS011;26454;51.164;4.488;2023-08-08T04:35:55;22.15;;;6.90;;
40745;SDS011;26454;51.164;4.488;2023-08-08T04:38:21;15.63;;;6.78;;
40745;SDS011;26454;51.164;4.488;2023-08-08T04:40:48;17.60;;;7.38;;
40745;SDS011;26454;51.164;4.488;2023-08-08T04:43:13;16.52;;;8.20;;
40745;SDS011;26454;51.164;4.488;2023-08-08T04:45:40;15.73;;;7.13;;
40745;SDS011;26454;51.164;4.488;2023-08-08T04:48:06;18.20;;;8.35;;
40745;SDS011;26454;51.164;4.488;2023-08-08T04:50:32;19.58;;;7.53;;
40745;SDS011;26454;51.164;4.488;2023-08-08T04:52:58;19.02;;;7.32;;
40745;SDS011;26454;51.164;4.488;2023-08-08T04:55:24;15.65;;;7.22;;
40745;SDS011;26454;51.164;4.488;2023-08-08T04:57:50;24.85;;;8.95;;
40745;SDS011;26454;51.164;4.488;2023-08-08T05:00:16;19.02;;;8.77;;
40745;SDS011;26454;51.164;4.488;2023-08-08T05:02:44;20.92;;;9.75;;
40745;SDS011;26454;51.164;4.488;2023-08-08T05:05:10;24.40;;;8.98;;
40745;SDS011;26454;51.164;4.488;2023-08-08T05:07:36;17.40;;;8.25;;
40745;SDS011;26454;51.164;4.488;2023-08-08T05:10:02;20.27;;;9.55;;
40745;SDS011;26454;51.164;4.488;2023-08-08T05:12:29;16.90;;;7.57;;
40745;SDS011;26454;51.164;4.488;2023-08-08T05:14:55;21.27;;;8.02;;
40745;SDS011;26454;51.164;4.488;2023-08-08T05:17:21;29.35;;;8.93;;
40745;SDS011;26454;51.164;4.488;2023-08-08T05:19:47;25.17;;;8.25;;
40745;SDS011;26454;51.164;4.488;2023-08-08T05:22:13;17.13;;;7.90;;
40745;SDS011;26454;51.164;4.488;2023-08-08T05:24:39;22.52;;;8.48;;
40745;SDS011;26454;51.164;4.488;2023-08-08T05:27:05;17.92;;;7.25;;
40745;SDS011;26454;51.164;4.488;2023-08-08T05:29:31;18.48;;;7.38;;
40745;SDS011;26454;51.164;4.488;2023-08-08T05:31:57;24.05;;;8.50;;
40745;SDS011;26454;51.164;4.488;2023-08-08T05:34:24;16.00;;;7.10;;
40745;SDS011;26454;51.164;4.488;2023-08-08T05:36:50;24.20;;;7.85;;
40745;SDS011;26454;51.164;4.488;2023-08-08T05:39:16;20.08;;;7.72;;
40745;SDS011;26454;51.164;4.488;2023-08-08T05:41:42;18.63;;;7.68;;
40745;SDS011;26454;51.164;4.488;2023-08-08T05:44:08;24.13;;;8.23;;
40745;SDS011;26454;51.164;4.488;2023-08-08T05:46:34;14.75;;;7.28;;
40745;SDS011;26454;51.164;4.488;2023-08-08T05:49:00;19.38;;;6.75;;
40745;SDS011;26454;51.164;4.488;2023-08-08T05:51:26;19.50;;;7.05;;
40745;SDS011;26454;51.164;4.488;2023-08-08T05:53:55;21.65;;;7.50;;
40745;SDS011;26454;51.164;4.488;2023-08-08T05:56:21;16.90;;;7.00;;
40745;SDS011;26454;51.164;4.488;2023-08-08T05:58:47;20.33;;;7.40;;
40745;SDS011;26454;51.164;4.488;2023-08-08T06:01:13;18.15;;;6.45;;
40745;SDS011;26454;51.164;4.488;2023-08-08T06:03:39;23.15;;;8.00;;
40745;SDS011;26454;51.164;4.488;2023-08-08T06:06:05;19.52;;;6.57;;
40745;SDS011;26454;51.164;4.488;2023-08-08T06:08:31;16.67;;;6.18;;
40745;SDS011;26454;51.164;4.488;2023-08-08T06:10:57;23.52;;;6.70;;
40745;SDS011;26454;51.164;4.488;2023-08-08T06:13:23;15.23;;;5.15;;
40745;SDS011;26454;51.164;4.488;2023-08-08T06:15:49;18.63;;;6.35;;
40745;SDS011;26454;51.164;4.488;2023-08-08T06:18:16;15.80;;;6.05;;
40745;SDS011;26454;51.164;4.488;2023-08-08T06:20:42;13.55;;;5.18;;
40745;SDS011;26454;51.164;4.488;2023-08-08T06:23:08;18.33;;;6.82;;
40745;SDS011;26454;51.164;4.488;2023-08-08T06:25:35;16.00;;;6.38;;
40745;SDS011;26454;51.164;4.488;2023-08-08T06:28:01;15.18;;;5.90;;
40745;SDS011;26454;51.164;4.488;2023-08-08T06:30:28;17.23;;;5.78;;
40745;SDS011;26454;51.164;4.488;2023-08-08T06:32:54;12.93;;;5.55;;
40745;SDS011;26454;51.164;4.488;2023-08-08T06:35:20;11.63;;;4.72;;
40745;SDS011;26454;51.164;4.488;2023-08-08T06:37:46;15.48;;;5.97;;
40745;SDS011;26454;51.164;4.488;2023-08-08T06:40:12;21.35;;;7.05;;
40745;SDS011;26454;51.164;4.488;2023-08-08T06:42:38;29.52;;;6.57;;
40745;SDS011;26454;51.164;4.488;2023-08-08T06:45:04;15.25;;;5.28;;
40745;SDS011;26454;51.164;4.488;2023-08-08T06:47:31;17.88;;;5.50;;
40745;SDS011;26454;51.164;4.488;2023-08-08T06:49:57;18.67;;;6.00;;
40745;SDS011;26454;51.164;4.488;2023-08-08T06:52:23;19.15;;;6.35;;
40745;SDS011;26454;51.164;4.488;2023-08-08T06:54:49;11.98;;;5.38;;
40745;SDS011;26454;51.164;4.488;2023-08-08T06:57:15;21.50;;;6.07;;
40745;SDS011;26454;51.164;4.488;2023-08-08T06:59:41;16.17;;;4.88;;
40745;SDS011;26454;51.164;4.488;2023-08-08T07:02:07;11.65;;;5.53;;
40745;SDS011;26454;51.164;4.488;2023-08-08T07:04:33;13.85;;;5.53;;
40745;SDS011;26454;51.164;4.488;2023-08-08T07:06:59;14.20;;;5.07;;
40745;SDS011;26454;51.164;4.488;2023-08-08T07:09:25;14.43;;;4.70;;
40745;SDS011;26454;51.164;4.488;2023-08-08T07:11:51;11.85;;;4.28;;
40745;SDS011;26454;51.164;4.488;2023-08-08T07:14:17;13.85;;;4.55;;
40745;SDS011;26454;51.164;4.488;2023-08-08T07:16:43;13.57;;;4.55;;
40745;SDS011;26454;51.164;4.488;2023-08-08T07:19:09;16.75;;;4.88;;
40745;SDS011;26454;51.164;4.488;2023-08-08T07:21:36;12.90;;;4.47;;
40745;SDS011;26454;51.164;4.488;2023-08-08T07:24:02;12.68;;;4.03;;
40745;SDS011;26454;51.164;4.488;2023-08-08T07:26:28;12.25;;;4.35;;
40745;SDS011;26454;51.164;4.488;2023-08-08T07:28:54;11.35;;;4.60;;
40745;SDS011;26454;51.164;4.488;2023-08-08T07:31:20;11.48;;;4.53;;
40745;SDS011;26454;51.164;4.488;2023-08-08T07:33:46;14.25;;;4.15;;
40745;SDS011;26454;51.164;4.488;2023-08-08T07:36:12;15.82;;;4.30;;
40745;SDS011;26454;51.164;4.488;2023-08-08T07:38:38;12.60;;;5.10;;
40745;SDS011;26454;51.164;4.488;2023-08-08T07:41:04;8.23;;;4.25;;
40745;SDS011;26454;51.164;4.488;2023-08-08T07:43:31;10.32;;;4.30;;
40745;SDS011;26454;51.164;4.488;2023-08-08T07:45:57;13.85;;;5.47;;
40745;SDS011;26454;51.164;4.488;2023-08-08T07:48:23;12.20;;;4.30;;
40745;SDS011;26454;51.164;4.488;2023-08-08T07:50:49;23.92;;;6.07;;
40745;SDS011;26454;51.164;4.488;2023-08-08T07:53:15;11.43;;;4.35;;
40745;SDS011;26454;51.164;4.488;2023-08-08T07:55:41;12.93;;;4.32;;
40745;SDS011;26454;51.164;4.488;2023-08-08T07:58:07;9.30;;;4.20;;
40745;SDS011;26454;51.164;4.488;2023-08-08T08:00:33;9.30;;;4.82;;
40745;SDS011;26454;51.164;4.488;2023-08-08T08:02:59;16.95;;;5.07;;
40745;SDS011;26454;51.164;4.488;2023-08-08T08:05:25;13.05;;;5.30;;
40745;SDS011;26454;51.164;4.488;2023-08-08T08:07:51;20.10;;;5.18;;
40745;SDS011;26454;51.164;4.488;2023-08-08T08:10:18;11.48;;;4.53;;
40745;SDS011;26454;51.164;4.488;2023-08-08T08:12:44;10.32;;;4.22;;
40745;SDS011;26454;51.164;4.488;2023-08-08T08:15:10;10.18;;;3.85;;
40745;SDS011;26454;51.164;4.488;2023-08-08T08:17:36;12.18;;;4.18;;
40745;SDS011;26454;51.164;4.488;2023-08-08T08:20:02;23.40;;;6.70;;
40745;SDS011;26454;51.164;4.488;2023-08-08T08:22:31;9.43;;;4.35;;
40745;SDS011;26454;51.164;4.488;2023-08-08T08:24:57;18.73;;;4.95;;
40745;SDS011;26454;51.164;4.488;2023-08-08T08:27:23;12.07;;;4.35;;
40745;SDS011;26454;51.164;4.488;2023-08-08T08:29:49;7.10;;;3.90;;
40745;SDS011;26454;51.164;4.488;2023-08-08T08:32:15;8.75;;;4.72;;
40745;SDS011;26454;51.164;4.488;2023-08-08T08:34:41;10.40;;;4.78;;
40745;SDS011;26454;51.164;4.488;2023-08-08T08:37:07;10.05;;;4.53;;
40745;SDS011;26454;51.164;4.488;2023-08-08T08:39:33;13.77;;;3.90;;
40745;SDS011;26454;51.164;4.488;2023-08-08T08:41:59;9.35;;;4.55;;
40745;SDS011;26454;51.164;4.488;2023-08-08T08:44:29;12.27;;;4.38;;
40745;SDS011;26454;51.164;4.488;2023-08-08T08:46:58;13.15;;;4.00;;
40745;SDS011;26454;51.164;4.488;2023-08-08T08:49:25;9.02;;;4.03;;
40745;SDS011;26454;51.164;4.488;2023-08-08T08:51:51;8.90;;;4.40;;
40745;SDS011;26454;51.164;4.488;2023-08-08T08:54:18;8.77;;;3.90;;
40745;SDS011;26454;51.164;4.488;2023-08-08T08:56:44;11.23;;;4.50;;
40745;SDS011;26454;51.164;4.488;2023-08-08T08:59:10;12.40;;;4.53;;
40745;SDS011;26454;51.164;4.488;2023-08-08T09:01:36;17.55;;;4.13;;
40745;SDS011;26454;51.164;4.488;2023-08-08T09:04:02;11.00;;;3.38;;
40745;SDS011;26454;51.164;4.488;2023-08-08T09:06:29;10.38;;;3.65;;
40745;SDS011;26454;51.164;4.488;2023-08-08T09:08:55;10.23;;;3.63;;
40745;SDS011;26454;51.164;4.488;2023-08-08T09:11:21;11.88;;;3.33;;
40745;SDS011;26454;51.164;4.488;2023-08-08T09:13:47;5.80;;;3.38;;
40745;SDS011;26454;51.164;4.488;2023-08-08T09:16:13;13.35;;;3.60;;
40745;SDS011;26454;51.164;4.488;2023-08-08T09:18:39;10.98;;;3.35;;
40745;SDS011;26454;51.164;4.488;2023-08-08T09:21:07;15.30;;;4.05;;
40745;SDS011;26454;51.164;4.488;2023-08-08T09:23:33;10.43;;;3.45;;
40745;SDS011;26454;51.164;4.488;2023-08-08T09:25:59;11.48;;;3.78;;
40745;SDS011;26454;51.164;4.488;2023-08-08T09:28:25;9.82;;;3.72;;
40745;SDS011;26454;51.164;4.488;2023-08-08T09:30:51;12.93;;;3.60;;
40745;SDS011;26454;51.164;4.488;2023-08-08T09:33:18;10.10;;;3.85;;
40745;SDS011;26454;51.164;4.488;2023-08-08T09:35:44;6.65;;;3.70;;
40745;SDS011;26454;51.164;4.488;2023-08-08T09:38:10;7.88;;;3.38;;
40745;SDS011;26454;51.164;4.488;2023-08-08T09:40:36;6.88;;;3.63;;
40745;SDS011;26454;51.164;4.488;2023-08-08T09:43:02;4.60;;;2.83;;
40745;SDS011;26454;51.164;4.488;2023-08-08T09:45:36;6.13;;;2.75;;
40745;SDS011;26454;51.164;4.488;2023-08-08T09:48:03;9.57;;;3.45;;
40745;SDS011;26454;51.164;4.488;2023-08-08T09:50:29;9.80;;;3.42;;
40745;SDS011;26454;51.164;4.488;2023-08-08T09:52:57;10.95;;;3.15;;
40745;SDS011;26454;51.164;4.488;2023-08-08T09:55:24;6.68;;;2.50;;
40745;SDS011;26454;51.164;4.488;2023-08-08T09:57:50;5.13;;;2.70;;
40745;SDS011;26454;51.164;4.488;2023-08-08T10:00:16;3.85;;;2.58;;
40745;SDS011;26454;51.164;4.488;2023-08-08T10:02:46;4.63;;;2.27;;
40745;SDS011;26454;51.164;4.488;2023-08-08T10:05:13;5.63;;;2.03;;
40745;SDS011;26454;51.164;4.488;2023-08-08T10:07:40;4.13;;;1.92;;
40745;SDS011;26454;51.164;4.488;2023-08-08T10:10:07;4.15;;;2.20;;
40745;SDS011;26454;51.164;4.488;2023-08-08T10:12:34;4.90;;;1.90;;
40745;SDS011;26454;51.164;4.488;2023-08-08T10:15:01;3.03;;;1.58;;
40745;SDS011;26454;51.164;4.488;2023-08-08T10:17:28;7.25;;;1.98;;
40745;SDS011;26454;51.164;4.488;2023-08-08T10:20:00;3.75;;;2.10;;
40745;SDS011;26454;51.164;4.488;2023-08-08T10:22:34;6.75;;;1.73;;
40745;SDS011;26454;51.164;4.488;2023-08-08T10:25:03;4.47;;;1.80;;
40745;SDS011;26454;51.164;4.488;2023-08-08T10:27:32;4.05;;;1.80;;
40745;SDS011;26454;51.164;4.488;2023-08-08T10:30:06;2.63;;;1.70;;
40745;SDS011;26454;51.164;4.488;2023-08-08T10:32:42;5.55;;;1.20;;
40745;SDS011;26454;51.164;4.488;2023-08-08T10:35:09;7.13;;;2.10;;
40745;SDS011;26454;51.164;4.488;2023-08-08T10:37:35;4.63;;;2.22;;
40745;SDS011;26454;51.164;4.488;2023-08-08T10:40:02;4.80;;;1.95;;
40745;SDS011;26454;51.164;4.488;2023-08-08T10:42:31;3.00;;;1.55;;
40745;SDS011;26454;51.164;4.488;2023-08-08T10:44:59;3.05;;;1.40;;
40745;SDS011;26454;51.164;4.488;2023-08-08T10:47:26;2.88;;;1.67;;
40745;SDS011;26454;51.164;4.488;2023-08-08T10:49:58;2.70;;;1.70;;
40745;SDS011;26454;51.164;4.488;2023-08-08T10:52:24;3.50;;;1.58;;
40745;SDS011;26454;51.164;4.488;2023-08-08T10:54:51;3.03;;;1.30;;
40745;SDS011;26454;51.164;4.488;2023-08-08T10:57:19;2.40;;;1.38;;
40745;SDS011;26454;51.164;4.488;2023-08-08T10:59:46;2.75;;;1.52;;
40745;SDS011;26454;51.164;4.488;2023-08-08T11:02:12;5.72;;;1.90;;
40745;SDS011;26454;51.164;4.488;2023-08-08T11:04:39;4.97;;;1.85;;
40745;SDS011;26454;51.164;4.488;2023-08-08T11:07:06;3.40;;;1.33;;
40745;SDS011;26454;51.164;4.488;2023-08-08T11:09:32;3.50;;;1.98;;
40745;SDS011;26454;51.164;4.488;2023-08-08T11:11:58;3.33;;;1.83;;
40745;SDS011;26454;51.164;4.488;2023-08-08T11:14:24;2.72;;;1.92;;
40745;SDS011;26454;51.164;4.488;2023-08-08T11:16:51;4.82;;;2.55;;
40745;SDS011;26454;51.164;4.488;2023-08-08T11:19:20;2.85;;;1.60;;
40745;SDS011;26454;51.164;4.488;2023-08-08T11:21:48;3.10;;;2.10;;
40745;SDS011;26454;51.164;4.488;2023-08-08T11:24:14;4.60;;;1.90;;
40745;SDS011;26454;51.164;4.488;2023-08-08T11:26:41;3.38;;;2.20;;
40745;SDS011;26454;51.164;4.488;2023-08-08T11:29:09;4.80;;;2.03;;
40745;SDS011;26454;51.164;4.488;2023-08-08T11:31:35;2.85;;;1.60;;
40745;SDS011;26454;51.164;4.488;2023-08-08T11:34:01;6.95;;;2.45;;
40745;SDS011;26454;51.164;4.488;2023-08-08T11:36:29;4.68;;;1.60;;
40745;SDS011;26454;51.164;4.488;2023-08-08T11:38:56;2.67;;;1.75;;
40745;SDS011;26454;51.164;4.488;2023-08-08T11:41:23;5.07;;;2.03;;
40745;SDS011;26454;51.164;4.488;2023-08-08T11:43:51;4.70;;;1.70;;
40745;SDS011;26454;51.164;4.488;2023-08-08T11:46:18;5.13;;;1.90;;
40745;SDS011;26454;51.164;4.488;2023-08-08T11:48:46;4.65;;;1.70;;
40745;SDS011;26454;51.164;4.488;2023-08-08T11:51:13;2.63;;;1.67;;
40745;SDS011;26454;51.164;4.488;2023-08-08T11:53:47;4.18;;;2.42;;
40745;SDS011;26454;51.164;4.488;2023-08-08T11:56:14;6.55;;;2.30;;
40745;SDS011;26454;51.164;4.488;2023-08-08T11:58:41;4.28;;;2.70;;
40745;SDS011;26454;51.164;4.488;2023-08-08T12:01:07;10.50;;;2.78;;
40745;SDS011;26454;51.164;4.488;2023-08-08T12:03:34;3.78;;;2.53;;
40745;SDS011;26454;51.164;4.488;2023-08-08T12:06:10;4.72;;;2.10;;
40745;SDS011;26454;51.164;4.488;2023-08-08T12:08:37;6.20;;;1.73;;
40745;SDS011;26454;51.164;4.488;2023-08-08T12:11:03;6.07;;;2.28;;
40745;SDS011;26454;51.164;4.488;2023-08-08T12:13:30;4.70;;;2.55;;
40745;SDS011;26454;51.164;4.488;2023-08-08T12:15:57;5.97;;;2.40;;
40745;SDS011;26454;51.164;4.488;2023-08-08T12:18:24;5.57;;;2.58;;
40745;SDS011;26454;51.164;4.488;2023-08-08T12:20:50;5.43;;;2.45;;
40745;SDS011;26454;51.164;4.488;2023-08-08T12:23:16;5.35;;;2.90;;
40745;SDS011;26454;51.164;4.488;2023-08-08T12:25:42;5.93;;;2.35;;
40745;SDS011;26454;51.164;4.488;2023-08-08T12:28:08;7.70;;;2.60;;
40745;SDS011;26454;51.164;4.488;2023-08-08T12:30:34;3.60;;;2.30;;
40745;SDS011;26454;51.164;4.488;2023-08-08T12:33:00;7.13;;;2.20;;
40745;SDS011;26454;51.164;4.488;2023-08-08T12:35:27;5.82;;;2.72;;
40745;SDS011;26454;51.164;4.488;2023-08-08T12:37:53;5.75;;;2.42;;
40745;SDS011;26454;51.164;4.488;2023-08-08T12:40:19;3.45;;;2.38;;
40745;SDS011;26454;51.164;4.488;2023-08-08T12:42:45;2.70;;;2.03;;
40745;SDS011;26454;51.164;4.488;2023-08-08T12:45:11;4.10;;;2.38;;
40745;SDS011;26454;51.164;4.488;2023-08-08T12:47:37;6.55;;;2.38;;
40745;SDS011;26454;51.164;4.488;2023-08-08T12:50:04;2.63;;;1.42;;
40745;SDS011;26454;51.164;4.488;2023-08-08T12:52:30;3.95;;;2.13;;
40745;SDS011;26454;51.164;4.488;2023-08-08T12:54:56;5.47;;;1.65;;
40745;SDS011;26454;51.164;4.488;2023-08-08T12:57:22;5.65;;;1.63;;
40745;SDS011;26454;51.164;4.488;2023-08-08T12:59:50;2.85;;;1.80;;
40745;SDS011;26454;51.164;4.488;2023-08-08T13:02:16;3.15;;;1.60;;
40745;SDS011;26454;51.164;4.488;2023-08-08T13:04:42;3.67;;;1.40;;
40745;SDS011;26454;51.164;4.488;2023-08-08T13:07:08;3.10;;;1.27;;
40745;SDS011;26454;51.164;4.488;2023-08-08T13:09:34;3.70;;;1.95;;
40745;SDS011;26454;51.164;4.488;2023-08-08T13:12:00;2.45;;;1.30;;
40745;SDS011;26454;51.164;4.488;2023-08-08T13:14:26;1.85;;;1.20;;
40745;SDS011;26454;51.164;4.488;2023-08-08T13:16:52;4.45;;;2.00;;
40745;SDS011;26454;51.164;4.488;2023-08-08T13:19:19;5.45;;;1.77;;
40745;SDS011;26454;51.164;4.488;2023-08-08T13:21:46;2.67;;;1.85;;
40745;SDS011;26454;51.164;4.488;2023-08-08T13:24:12;3.17;;;1.42;;
40745;SDS011;26454;51.164;4.488;2023-08-08T13:26:39;2.65;;;1.00;;
40745;SDS011;26454;51.164;4.488;2023-08-08T13:29:05;3.55;;;1.80;;
40745;SDS011;26454;51.164;4.488;2023-08-08T13:31:31;3.20;;;1.50;;
40745;SDS011;26454;51.164;4.488;2023-08-08T13:33:58;3.33;;;1.73;;
40745;SDS011;26454;51.164;4.488;2023-08-08T13:36:24;2.25;;;1.40;;
40745;SDS011;26454;51.164;4.488;2023-08-08T13:38:50;3.83;;;1.42;;
40745;SDS011;26454;51.164;4.488;2023-08-08T13:41:16;2.22;;;1.02;;
40745;SDS011;26454;51.164;4.488;2023-08-08T13:43:42;4.25;;;1.42;;
40745;SDS011;26454;51.164;4.488;2023-08-08T13:46:08;1.83;;;1.23;;
40745;SDS011;26454;51.164;4.488;2023-08-08T13:48:35;1.65;;;1.40;;
40745;SDS011;26454;51.164;4.488;2023-08-08T13:51:01;2.58;;;1.42;;
40745;SDS011;26454;51.164;4.488;2023-08-08T13:53:28;4.43;;;1.02;;
40745;SDS011;26454;51.164;4.488;2023-08-08T13:55:54;2.05;;;1.42;;
40745;SDS011;26454;51.164;4.488;2023-08-08T13:58:20;2.90;;;1.20;;
40745;SDS011;26454;51.164;4.488;2023-08-08T14:00:47;2.28;;;1.10;;
40745;SDS011;26454;51.164;4.488;2023-08-08T14:03:13;5.32;;;1.55;;
40745;SDS011;26454;51.164;4.488;2023-08-08T14:05:39;6.28;;;1.60;;
40745;SDS011;26454;51.164;4.488;2023-08-08T14:08:05;3.58;;;1.20;;
40745;SDS011;26454;51.164;4.488;2023-08-08T14:10:32;7.68;;;1.40;;
40745;SDS011;26454;51.164;4.488;2023-08-08T14:12:58;4.75;;;1.67;;
40745;SDS011;26454;51.164;4.488;2023-08-08T14:15:24;4.65;;;2.00;;
40745;SDS011;26454;51.164;4.488;2023-08-08T14:17:50;1.98;;;1.30;;
40745;SDS011;26454;51.164;4.488;2023-08-08T14:20:16;1.88;;;1.15;;
40745;SDS011;26454;51.164;4.488;2023-08-08T14:22:44;4.13;;;1.60;;
40745;SDS011;26454;51.164;4.488;2023-08-08T14:25:11;1.73;;;1.20;;
40745;SDS011;26454;51.164;4.488;2023-08-08T14:27:37;3.85;;;1.58;;
40745;SDS011;26454;51.164;4.488;2023-08-08T14:30:03;5.32;;;2.30;;
40745;SDS011;26454;51.164;4.488;2023-08-08T14:32:30;4.80;;;1.40;;
40745;SDS011;26454;51.164;4.488;2023-08-08T14:34:56;3.80;;;1.50;;
40745;SDS011;26454;51.164;4.488;2023-08-08T14:37:22;2.25;;;1.10;;